ETSN

Neuburg Airport

Germany
METAR ETSN 240320Z 31009KT 9999 SCT038 BKN090 08/05 Q1025 BLU
Observed Flight Rules
Sep-24 @ 03:20 UTC (25 minutes ago) Visual Flight Rules
Wind Visibility Clouds
310° at 9 knots 10,000+ meters
  • Scattered at 3,800' AGL
  • Broken at 9,000' AGL
Temperatures Readings
Current 8°C / 46°F
Dewpoint 5°C / 41°F
Humidity 82%
Altimeter 30.27" Hg
Pressure 1025 hPa
Elevation 387
METAR ETSN 240320Z 31009KT 9999 SCT038 BKN090 08/05 Q1025 BLU
Observed Flight Rules
Sep-24 @ 03:20 UTC
(25 minutes ago)
VFR
Wind Visibility
310° at 9 knots 10,000+ meters
Clouds
  • Scattered at 3,800' AGL
  • Broken at 9,000' AGL
Temperature Dewpoint
8°C / 46°F 5°C / 41°F
Humidity Altimeter Pressure
82% 30.27" Hg 1025 hPa